Terminal Aerodrome Forecast
Issued by NWS

Home | Current Version | Previous Version | Text Only | Print | Product List | Glossary On
Versions: 1 2 3 4 5 6 7 8 9 10 11 12 13 14 15 16 17 18 19 20
000
FTUS45 KBOU 270538
TAFBJC
TAF
KBJC 270538Z 2706/2806 VRB06KT P6SM OVC120
     FM270900 30006KT P6SM VCSH SCT040 BKN060
     FM271300 02010KT P6SM VCSH SCT010 BKN020
     FM271700 04010KT P6SM SCT020 BKN040
     FM280000 VRB06KT P6SM SCT040 BKN100=

USA.gov is the U.S. government's official web portal to all federal, state and local government web resources and services.